首页
METAR-TAF:

METAR-TAF

机场 :

米兰-马尔彭萨机场

米蘭, 意大利

纬度: 45-37N, 经度: 008-44E, 海拔: 234米

当前天气观测

该预报发布于36分钟前的08:20 UTC
风速5节,风向
温度 15°C
湿度 100%
气压 1020 hPa
能见度10公里或以上
多云层高于4000英尺

METAR: LIMC 220820Z 36005KT 9999 BKN040 15/15 Q1020 NOSIG

时间: 10:56 (08:56 UTC)

预报

该预报发布于3小时和56分钟前的05:00 UTC
预报有效从22日的 06点(UTC)到 23日的 12点(UTC)
风速5节,风向多变
能见度10公里或以上
多云层高于5000英尺
短暂存在
从 22日的 06点(UTC)到 22日的 09点(UTC)
短暂存在
从 23日的 03点(UTC)到 23日的 12点(UTC)
能見度: 4000
多云层高于1200英尺
多云层高于4000英尺
阵雨

TAF: LIMC 220500Z 2206/2312 VRB05KT 9999 BKN050 TEMPO 2206/2209 RA TEMPO 2303/2312 4000 SHRA BKN012 BKN040

超过4000个机场的气象观测和天气预报(METAR&TAF报告)。

可查询的气象台以黄色和红色小点在地图上表示。

将鼠标移到小点上方,可查看气象台名称。

然后点击查看天气观测和预报。

如需切换地图:点击带黑十字的绿色按钮放大地图;点击带横线的绿色按钮缩小地图;或者点击绿色箭头查看邻近地区的地图。


METAR-TAF: